AAL983 KEWR-KDTW
Flight info
| Callsign | AAL983 |
|---|---|
| Flight time | 1h 36m |
| Altitude | 36000 |
| Route | GAYEL J95 CFB TRAAD JACCI FERRL2 |
| Aircraft | A20N/M-SDE2E3FGHIRWXY/LB1 |
Departure
| Time | 2026-05-06 21:34 |
|---|---|
| Airport | Newark Liberty International Airport (KEWR) |
Arrival
| Time | 2026-05-06 23:10 |
|---|---|
| Airport | Detroit Metropolitan Wayne County Airport (KDTW) |
| Time | Latitude | Longitude | Altitude | Speed | Heading |
|---|---|---|---|---|---|
| 2026-05-06 21:26 | 40.70407 | -74.16733 | 25 ft | 0 kts | 74° |
| 2026-05-06 21:31 | 40.70408 | -74.16724 | 27 ft | 6 kts | 84° |
| 2026-05-06 21:31 | 40.70381 | -74.16664 | 25 ft | 6 kts | 174° |
| 2026-05-06 21:31 | 40.70337 | -74.16666 | 25 ft | 10 kts | 176° |
| 2026-05-06 21:32 | 40.70294 | -74.16588 | 23 ft | 12 kts | 98° |
| 2026-05-06 21:32 | 40.70276 | -74.16285 | 22 ft | 15 kts | 90° |
| 2026-05-06 21:32 | 40.70253 | -74.16242 | 22 ft | 8 kts | 183° |
| 2026-05-06 21:33 | 40.70168 | -74.16273 | 20 ft | 12 kts | 205° |
| 2026-05-06 21:33 | 40.69938 | -74.16421 | 17 ft | 74 kts | 207° |
| 2026-05-06 21:33 | 40.69225 | -74.16876 | 24 ft | 153 kts | 202° |
| 2026-05-06 21:33 | 40.68141 | -74.17526 | 434 ft | 181 kts | 206° |
| 2026-05-06 21:34 | 40.66890 | -74.18225 | 1113 ft | 202 kts | 205° |
| 2026-05-06 21:34 | 40.65603 | -74.19058 | 2066 ft | 213 kts | 213° |
| 2026-05-06 21:34 | 40.64235 | -74.20049 | 2670 ft | 233 kts | 216° |
| 2026-05-06 21:34 | 40.62975 | -74.21445 | 3455 ft | 238 kts | 230° |
| 2026-05-06 21:35 | 40.62041 | -74.23220 | 4392 ft | 237 kts | 246° |
| 2026-05-06 21:35 | 40.61565 | -74.25269 | 5366 ft | 235 kts | 261° |
| 2026-05-06 21:35 | 40.61467 | -74.27417 | 6385 ft | 236 kts | 272° |
| 2026-05-06 21:35 | 40.61827 | -74.29543 | 7293 ft | 242 kts | 288° |
| 2026-05-06 21:36 | 40.62590 | -74.31542 | 8252 ft | 247 kts | 294° |
| 2026-05-06 21:36 | 40.63689 | -74.33324 | 9117 ft | 263 kts | 311° |
| 2026-05-06 21:36 | 40.65315 | -74.34593 | 9992 ft | 283 kts | 331° |
| 2026-05-06 21:36 | 40.67300 | -74.35246 | 10546 ft | 308 kts | 340° |
| 2026-05-06 21:37 | 40.69566 | -74.35361 | 10851 ft | 342 kts | 354° |
| 2026-05-06 21:37 | 40.71986 | -74.35543 | 11162 ft | 356 kts | 343° |
| 2026-05-06 21:37 | 40.74490 | -74.36218 | 11595 ft | 367 kts | 338° |
| 2026-05-06 21:37 | 40.76987 | -74.36978 | 12255 ft | 379 kts | 342° |
| 2026-05-06 21:38 | 40.79621 | -74.37539 | 12972 ft | 389 kts | 347° |
| 2026-05-06 21:38 | 40.82383 | -74.37544 | 13703 ft | 402 kts | 356° |
| 2026-05-06 21:38 | 40.85185 | -74.37348 | 14344 ft | 409 kts | 0° |
| 2026-05-06 21:38 | 40.88016 | -74.36669 | 15006 ft | 418 kts | 7° |
| 2026-05-06 21:39 | 40.90853 | -74.35699 | 15668 ft | 421 kts | 6° |
| 2026-05-06 21:39 | 40.93714 | -74.34824 | 16317 ft | 427 kts | 9° |
| 2026-05-06 21:39 | 40.96580 | -74.33663 | 16956 ft | 433 kts | 13° |
| 2026-05-06 21:39 | 40.99490 | -74.32530 | 17575 ft | 434 kts | 7° |
| 2026-05-06 21:40 | 41.02421 | -74.31452 | 18162 ft | 442 kts | 13° |
| 2026-05-06 21:40 | 41.05341 | -74.30085 | 18670 ft | 444 kts | 11° |
| 2026-05-06 21:40 | 41.08312 | -74.29305 | 19232 ft | 437 kts | 358° |
| 2026-05-06 21:40 | 41.11319 | -74.29323 | 19867 ft | 427 kts | 347° |
| 2026-05-06 21:41 | 41.14249 | -74.29802 | 20536 ft | 423 kts | 342° |
| 2026-05-06 21:41 | 41.17148 | -74.30451 | 21191 ft | 422 kts | 341° |
| 2026-05-06 21:41 | 41.20039 | -74.31160 | 21818 ft | 422 kts | 340° |
| 2026-05-06 21:41 | 41.22948 | -74.31871 | 22408 ft | 424 kts | 340° |
| 2026-05-06 21:42 | 41.25850 | -74.32554 | 23029 ft | 425 kts | 340° |
| 2026-05-06 21:42 | 41.28776 | -74.33213 | 23563 ft | 427 kts | 340° |
| 2026-05-06 21:42 | 41.31723 | -74.33855 | 23973 ft | 430 kts | 340° |
| 2026-05-06 21:42 | 41.34620 | -74.34723 | 24337 ft | 424 kts | 333° |
| 2026-05-06 21:43 | 41.37315 | -74.36062 | 24749 ft | 415 kts | 325° |
| 2026-05-06 21:43 | 41.39794 | -74.37927 | 25177 ft | 406 kts | 316° |
| 2026-05-06 21:43 | 41.41957 | -74.40277 | 25597 ft | 397 kts | 307° |
| 2026-05-06 21:43 | 41.43742 | -74.43029 | 26010 ft | 389 kts | 298° |
| 2026-05-06 21:44 | 41.45228 | -74.46018 | 26435 ft | 387 kts | 295° |
| 2026-05-06 21:44 | 41.46613 | -74.49094 | 26873 ft | 386 kts | 293° |
| 2026-05-06 21:44 | 41.47947 | -74.52214 | 27283 ft | 387 kts | 292° |
| 2026-05-06 21:44 | 41.49264 | -74.55355 | 27665 ft | 389 kts | 292° |
| 2026-05-06 21:45 | 41.50584 | -74.58501 | 28069 ft | 389 kts | 292° |
| 2026-05-06 21:45 | 41.51911 | -74.61634 | 28637 ft | 385 kts | 292° |
| 2026-05-06 21:45 | 41.53228 | -74.64717 | 29299 ft | 380 kts | 292° |
| 2026-05-06 21:45 | 41.54534 | -74.67755 | 29911 ft | 375 kts | 292° |
| 2026-05-06 21:46 | 41.55831 | -74.70771 | 30369 ft | 373 kts | 292° |
| 2026-05-06 21:46 | 41.57118 | -74.73765 | 30814 ft | 371 kts | 292° |
| 2026-05-06 21:46 | 41.58403 | -74.76757 | 31273 ft | 369 kts | 292° |
| 2026-05-06 21:46 | 41.59673 | -74.79717 | 31749 ft | 366 kts | 292° |
| 2026-05-06 21:47 | 41.60915 | -74.82616 | 32185 ft | 363 kts | 292° |
| 2026-05-06 21:47 | 41.62166 | -74.85542 | 32575 ft | 361 kts | 292° |
| 2026-05-06 21:47 | 41.63412 | -74.88460 | 32962 ft | 360 kts | 291° |
| 2026-05-06 21:47 | 41.64647 | -74.91352 | 33364 ft | 357 kts | 291° |
| 2026-05-06 21:48 | 41.65877 | -74.94235 | 33773 ft | 355 kts | 291° |
| 2026-05-06 21:48 | 41.67095 | -74.97097 | 34098 ft | 353 kts | 291° |
| 2026-05-06 21:48 | 41.68311 | -74.99957 | 34350 ft | 353 kts | 291° |
| 2026-05-06 21:48 | 41.69525 | -75.02817 | 34601 ft | 353 kts | 291° |
| 2026-05-06 21:49 | 41.70739 | -75.05678 | 34838 ft | 353 kts | 291° |
| 2026-05-06 21:49 | 41.71951 | -75.08537 | 35067 ft | 353 kts | 291° |
| 2026-05-06 21:49 | 41.73162 | -75.11394 | 35332 ft | 352 kts | 291° |
| 2026-05-06 21:49 | 41.74355 | -75.14210 | 35594 ft | 352 kts | 291° |
| 2026-05-06 21:50 | 41.75564 | -75.17066 | 35786 ft | 353 kts | 291° |
| 2026-05-06 21:50 | 41.76778 | -75.19943 | 35809 ft | 354 kts | 291° |
| 2026-05-06 21:50 | 41.79202 | -75.25684 | 35822 ft | 354 kts | 291° |
| 2026-05-06 21:51 | 41.81625 | -75.31431 | 35832 ft | 354 kts | 291° |
| 2026-05-06 21:51 | 41.84047 | -75.37189 | 35835 ft | 354 kts | 291° |
| 2026-05-06 21:52 | 41.86463 | -75.42947 | 35841 ft | 354 kts | 291° |
| 2026-05-06 21:52 | 41.88882 | -75.48722 | 35834 ft | 355 kts | 291° |
| 2026-05-06 21:53 | 41.91282 | -75.54463 | 35853 ft | 355 kts | 291° |
| 2026-05-06 21:53 | 41.93697 | -75.60249 | 35857 ft | 355 kts | 291° |
| 2026-05-06 21:54 | 41.96111 | -75.66044 | 35859 ft | 355 kts | 291° |
| 2026-05-06 21:54 | 41.98523 | -75.71850 | 35859 ft | 355 kts | 291° |
| 2026-05-06 21:55 | 42.00937 | -75.77668 | 35858 ft | 356 kts | 291° |
| 2026-05-06 21:55 | 42.03342 | -75.83477 | 35856 ft | 356 kts | 291° |
| 2026-05-06 21:56 | 42.05746 | -75.89296 | 35857 ft | 356 kts | 291° |
| 2026-05-06 21:56 | 42.08150 | -75.95123 | 35856 ft | 356 kts | 291° |
| 2026-05-06 21:57 | 42.10547 | -76.00949 | 35855 ft | 356 kts | 291° |
| 2026-05-06 21:57 | 42.12948 | -76.06792 | 35857 ft | 356 kts | 290° |
| 2026-05-06 21:58 | 42.15076 | -76.12711 | 35856 ft | 349 kts | 283° |
| 2026-05-06 21:58 | 42.16157 | -76.18999 | 35861 ft | 343 kts | 275° |
| 2026-05-06 21:59 | 42.16721 | -76.25373 | 35863 ft | 342 kts | 273° |
| 2026-05-06 21:59 | 42.17185 | -76.31753 | 35870 ft | 342 kts | 272° |
| 2026-05-06 22:00 | 42.17644 | -76.38092 | 35879 ft | 342 kts | 273° |
| 2026-05-06 22:00 | 42.18118 | -76.44466 | 35893 ft | 342 kts | 273° |
| 2026-05-06 22:01 | 42.18597 | -76.50837 | 35901 ft | 342 kts | 273° |
| 2026-05-06 22:01 | 42.19075 | -76.57235 | 35893 ft | 342 kts | 273° |
| 2026-05-06 22:02 | 42.19547 | -76.63617 | 35900 ft | 342 kts | 273° |
| 2026-05-06 22:02 | 42.20017 | -76.70008 | 35901 ft | 342 kts | 273° |
| 2026-05-06 22:03 | 42.20482 | -76.76367 | 35903 ft | 343 kts | 273° |
| 2026-05-06 22:03 | 42.20944 | -76.82760 | 35906 ft | 343 kts | 273° |
| 2026-05-06 22:04 | 42.21404 | -76.89174 | 35902 ft | 343 kts | 273° |
| 2026-05-06 22:04 | 42.21861 | -76.95591 | 35906 ft | 344 kts | 272° |
| 2026-05-06 22:05 | 42.22315 | -77.02018 | 35912 ft | 344 kts | 272° |
| 2026-05-06 22:05 | 42.22764 | -77.08435 | 35900 ft | 344 kts | 272° |
| 2026-05-06 22:06 | 42.23209 | -77.14830 | 35902 ft | 344 kts | 272° |
| 2026-05-06 22:06 | 42.23652 | -77.21267 | 35907 ft | 345 kts | 272° |
| 2026-05-06 22:07 | 42.24093 | -77.27719 | 35911 ft | 345 kts | 272° |
| 2026-05-06 22:07 | 42.24531 | -77.34169 | 35909 ft | 345 kts | 272° |
| 2026-05-06 22:08 | 42.24964 | -77.40619 | 35919 ft | 345 kts | 272° |
| 2026-05-06 22:08 | 42.25395 | -77.47085 | 35916 ft | 345 kts | 272° |
| 2026-05-06 22:09 | 42.26049 | -77.53527 | 35925 ft | 348 kts | 278° |
| 2026-05-06 22:09 | 42.27154 | -77.59904 | 35927 ft | 349 kts | 279° |
| 2026-05-06 22:10 | 42.28291 | -77.66235 | 35927 ft | 349 kts | 279° |
| 2026-05-06 22:10 | 42.29437 | -77.72607 | 35927 ft | 349 kts | 279° |
| 2026-05-06 22:11 | 42.30582 | -77.78993 | 35930 ft | 350 kts | 279° |
| 2026-05-06 22:11 | 42.31533 | -77.84308 | 35927 ft | 350 kts | 279° |
| 2026-05-06 22:12 | 42.32672 | -77.90701 | 35925 ft | 350 kts | 279° |
| 2026-05-06 22:12 | 42.33811 | -77.97110 | 35929 ft | 350 kts | 279° |
| 2026-05-06 22:13 | 42.34946 | -78.03522 | 35928 ft | 350 kts | 279° |
| 2026-05-06 22:13 | 42.36076 | -78.09933 | 35923 ft | 351 kts | 279° |
| 2026-05-06 22:14 | 42.37205 | -78.16356 | 35919 ft | 351 kts | 279° |
| 2026-05-06 22:14 | 42.38327 | -78.22755 | 35916 ft | 351 kts | 279° |
| 2026-05-06 22:15 | 42.39448 | -78.29182 | 35914 ft | 351 kts | 279° |
| 2026-05-06 22:15 | 42.40567 | -78.35616 | 35914 ft | 352 kts | 278° |
| 2026-05-06 22:16 | 42.41686 | -78.42069 | 35913 ft | 352 kts | 278° |
| 2026-05-06 22:16 | 42.42793 | -78.48480 | 35922 ft | 352 kts | 278° |
| 2026-05-06 22:17 | 42.43907 | -78.54956 | 35925 ft | 352 kts | 278° |
| 2026-05-06 22:17 | 42.45015 | -78.61418 | 35932 ft | 353 kts | 278° |
| 2026-05-06 22:18 | 42.46120 | -78.67891 | 35917 ft | 353 kts | 278° |
| 2026-05-06 22:18 | 42.46656 | -78.71124 | 35693 ft | 351 kts | 277° |
| 2026-05-06 22:18 | 42.46998 | -78.74380 | 35455 ft | 347 kts | 272° |
| 2026-05-06 22:19 | 42.47153 | -78.77642 | 35204 ft | 347 kts | 270° |
| 2026-05-06 22:19 | 42.47266 | -78.80900 | 34968 ft | 347 kts | 270° |
| 2026-05-06 22:19 | 42.47371 | -78.84166 | 34734 ft | 347 kts | 270° |
| 2026-05-06 22:19 | 42.47476 | -78.87429 | 34496 ft | 346 kts | 270° |
| 2026-05-06 22:20 | 42.47581 | -78.90686 | 34254 ft | 346 kts | 270° |
| 2026-05-06 22:20 | 42.47685 | -78.93901 | 34041 ft | 346 kts | 270° |
| 2026-05-06 22:20 | 42.47790 | -78.97156 | 33779 ft | 346 kts | 270° |
| 2026-05-06 22:20 | 42.47894 | -79.00414 | 33515 ft | 347 kts | 270° |
| 2026-05-06 22:21 | 42.47998 | -79.03689 | 33243 ft | 348 kts | 270° |
| 2026-05-06 22:21 | 42.48101 | -79.06981 | 32984 ft | 350 kts | 270° |
| 2026-05-06 22:21 | 42.48204 | -79.10279 | 32724 ft | 352 kts | 270° |
| 2026-05-06 22:21 | 42.48307 | -79.13607 | 32467 ft | 354 kts | 270° |
| 2026-05-06 22:22 | 42.48409 | -79.16936 | 32206 ft | 355 kts | 269° |
| 2026-05-06 22:22 | 42.48511 | -79.20295 | 31950 ft | 357 kts | 269° |
| 2026-05-06 22:22 | 42.48613 | -79.23671 | 31697 ft | 359 kts | 269° |
| 2026-05-06 22:22 | 42.48714 | -79.27048 | 31447 ft | 360 kts | 269° |
| 2026-05-06 22:23 | 42.48814 | -79.30448 | 31196 ft | 362 kts | 269° |
| 2026-05-06 22:23 | 42.48914 | -79.33858 | 30952 ft | 363 kts | 269° |
| 2026-05-06 22:23 | 42.49013 | -79.37290 | 30700 ft | 365 kts | 269° |
| 2026-05-06 22:23 | 42.49112 | -79.40731 | 30463 ft | 366 kts | 269° |
| 2026-05-06 22:24 | 42.49209 | -79.44146 | 30231 ft | 367 kts | 269° |
| 2026-05-06 22:24 | 42.49306 | -79.47611 | 29976 ft | 369 kts | 269° |
| 2026-05-06 22:24 | 42.49402 | -79.51093 | 29692 ft | 371 kts | 269° |
| 2026-05-06 22:24 | 42.49498 | -79.54598 | 29411 ft | 373 kts | 269° |
| 2026-05-06 22:25 | 42.49593 | -79.58111 | 29127 ft | 375 kts | 269° |
| 2026-05-06 22:25 | 42.49688 | -79.61655 | 28854 ft | 377 kts | 269° |
| 2026-05-06 22:25 | 42.49782 | -79.65224 | 28580 ft | 380 kts | 269° |
| 2026-05-06 22:25 | 42.49876 | -79.68814 | 28308 ft | 382 kts | 269° |
| 2026-05-06 22:26 | 42.49970 | -79.72424 | 28034 ft | 384 kts | 269° |
| 2026-05-06 22:26 | 42.50063 | -79.76061 | 27772 ft | 386 kts | 269° |
| 2026-05-06 22:26 | 42.50154 | -79.79664 | 27516 ft | 388 kts | 269° |
| 2026-05-06 22:26 | 42.50245 | -79.83331 | 27261 ft | 390 kts | 269° |
| 2026-05-06 22:27 | 42.50336 | -79.87029 | 26997 ft | 392 kts | 269° |
| 2026-05-06 22:27 | 42.50426 | -79.90748 | 26742 ft | 395 kts | 269° |
| 2026-05-06 22:27 | 42.50516 | -79.94479 | 26490 ft | 397 kts | 269° |
| 2026-05-06 22:27 | 42.50604 | -79.98230 | 26241 ft | 399 kts | 269° |
| 2026-05-06 22:28 | 42.50692 | -80.02004 | 25988 ft | 401 kts | 269° |
| 2026-05-06 22:28 | 42.50779 | -80.05791 | 25745 ft | 403 kts | 269° |
| 2026-05-06 22:28 | 42.50866 | -80.09602 | 25503 ft | 405 kts | 269° |
| 2026-05-06 22:28 | 42.50951 | -80.13429 | 25261 ft | 407 kts | 269° |
| 2026-05-06 22:29 | 42.51036 | -80.17276 | 25017 ft | 409 kts | 269° |
| 2026-05-06 22:29 | 42.51118 | -80.21080 | 24784 ft | 410 kts | 269° |
| 2026-05-06 22:29 | 42.51201 | -80.24943 | 24549 ft | 410 kts | 269° |
| 2026-05-06 22:29 | 42.51282 | -80.28798 | 24318 ft | 409 kts | 269° |
| 2026-05-06 22:30 | 42.51362 | -80.32648 | 24082 ft | 409 kts | 269° |
| 2026-05-06 22:30 | 42.51440 | -80.36511 | 23971 ft | 410 kts | 269° |
| 2026-05-06 22:30 | 42.51517 | -80.40382 | 23954 ft | 410 kts | 269° |
| 2026-05-06 22:30 | 42.51593 | -80.44249 | 23957 ft | 410 kts | 269° |
| 2026-05-06 22:31 | 42.51668 | -80.48105 | 23952 ft | 409 kts | 269° |
| 2026-05-06 22:31 | 42.51741 | -80.51980 | 23955 ft | 409 kts | 268° |
| 2026-05-06 22:31 | 42.51813 | -80.55837 | 23955 ft | 409 kts | 268° |
| 2026-05-06 22:31 | 42.51884 | -80.59697 | 23960 ft | 409 kts | 268° |
| 2026-05-06 22:32 | 42.51941 | -80.63499 | 23957 ft | 409 kts | 268° |
| 2026-05-06 22:32 | 42.51985 | -80.67360 | 23955 ft | 409 kts | 268° |
| 2026-05-06 22:32 | 42.52025 | -80.71216 | 23958 ft | 409 kts | 268° |
| 2026-05-06 22:32 | 42.52065 | -80.75073 | 23966 ft | 409 kts | 268° |
| 2026-05-06 22:33 | 42.52103 | -80.78928 | 23956 ft | 409 kts | 268° |
| 2026-05-06 22:33 | 42.52140 | -80.82787 | 23965 ft | 409 kts | 268° |
| 2026-05-06 22:33 | 42.52176 | -80.86641 | 23961 ft | 409 kts | 268° |
| 2026-05-06 22:33 | 42.52210 | -80.90495 | 23968 ft | 409 kts | 268° |
| 2026-05-06 22:34 | 42.52244 | -80.94350 | 23962 ft | 409 kts | 268° |
| 2026-05-06 22:34 | 42.52276 | -80.98204 | 23964 ft | 409 kts | 268° |
| 2026-05-06 22:34 | 42.52307 | -81.02054 | 23967 ft | 409 kts | 267° |
| 2026-05-06 22:34 | 42.52337 | -81.05912 | 23973 ft | 408 kts | 267° |
| 2026-05-06 22:35 | 42.52365 | -81.09725 | 23971 ft | 408 kts | 267° |
| 2026-05-06 22:35 | 42.52392 | -81.13616 | 23972 ft | 408 kts | 267° |
| 2026-05-06 22:35 | 42.52419 | -81.17375 | 23967 ft | 393 kts | 267° |
| 2026-05-06 22:35 | 42.52446 | -81.20975 | 23982 ft | 372 kts | 267° |
| 2026-05-06 22:36 | 42.52469 | -81.24392 | 23975 ft | 352 kts | 267° |
| 2026-05-06 22:36 | 42.52489 | -81.27652 | 23984 ft | 341 kts | 266° |
| 2026-05-06 22:36 | 42.52504 | -81.30863 | 23977 ft | 341 kts | 266° |
| 2026-05-06 22:36 | 42.52518 | -81.34091 | 23977 ft | 342 kts | 266° |
| 2026-05-06 22:37 | 42.52476 | -81.37311 | 23914 ft | 341 kts | 263° |
| 2026-05-06 22:37 | 42.52284 | -81.40503 | 23694 ft | 340 kts | 262° |
| 2026-05-06 22:37 | 42.52052 | -81.43662 | 23476 ft | 332 kts | 261° |
| 2026-05-06 22:37 | 42.51820 | -81.46741 | 23138 ft | 324 kts | 261° |
| 2026-05-06 22:38 | 42.51591 | -81.49760 | 22736 ft | 319 kts | 261° |
| 2026-05-06 22:38 | 42.51369 | -81.52695 | 22347 ft | 314 kts | 261° |
| 2026-05-06 22:38 | 42.51149 | -81.55610 | 21972 ft | 308 kts | 261° |
| 2026-05-06 22:38 | 42.50930 | -81.58494 | 21603 ft | 307 kts | 261° |
| 2026-05-06 22:39 | 42.50712 | -81.61365 | 21228 ft | 306 kts | 261° |
| 2026-05-06 22:39 | 42.50493 | -81.64237 | 20864 ft | 305 kts | 261° |
| 2026-05-06 22:39 | 42.50276 | -81.67089 | 20500 ft | 303 kts | 260° |
| 2026-05-06 22:39 | 42.50061 | -81.69892 | 20139 ft | 302 kts | 260° |
| 2026-05-06 22:40 | 42.49846 | -81.72709 | 19766 ft | 300 kts | 260° |
| 2026-05-06 22:40 | 42.49630 | -81.75510 | 19401 ft | 298 kts | 260° |
| 2026-05-06 22:40 | 42.49415 | -81.78304 | 19037 ft | 297 kts | 260° |
| 2026-05-06 22:40 | 42.49200 | -81.81084 | 18662 ft | 295 kts | 260° |
| 2026-05-06 22:41 | 42.48770 | -81.86597 | 17909 ft | 292 kts | 260° |
| 2026-05-06 22:41 | 42.48556 | -81.89328 | 17556 ft | 291 kts | 260° |
| 2026-05-06 22:41 | 42.48342 | -81.92046 | 17194 ft | 290 kts | 260° |
| 2026-05-06 22:42 | 42.48129 | -81.94754 | 16838 ft | 288 kts | 260° |
| 2026-05-06 22:42 | 42.47915 | -81.97457 | 16486 ft | 287 kts | 261° |
| 2026-05-06 22:42 | 42.47703 | -82.00139 | 16132 ft | 286 kts | 261° |
| 2026-05-06 22:42 | 42.47490 | -82.02810 | 15780 ft | 285 kts | 261° |
| 2026-05-06 22:43 | 42.47281 | -82.05438 | 15425 ft | 284 kts | 261° |
| 2026-05-06 22:43 | 42.47066 | -82.08122 | 15082 ft | 283 kts | 261° |
| 2026-05-06 22:43 | 42.46857 | -82.10731 | 14736 ft | 282 kts | 261° |
| 2026-05-06 22:43 | 42.46645 | -82.13374 | 14385 ft | 281 kts | 262° |
| 2026-05-06 22:44 | 42.46433 | -82.15995 | 14048 ft | 280 kts | 262° |
| 2026-05-06 22:44 | 42.46222 | -82.18610 | 13690 ft | 279 kts | 262° |
| 2026-05-06 22:44 | 42.46011 | -82.21215 | 13323 ft | 277 kts | 262° |
| 2026-05-06 22:44 | 42.45801 | -82.23802 | 12978 ft | 276 kts | 262° |
| 2026-05-06 22:45 | 42.45591 | -82.26382 | 12631 ft | 275 kts | 262° |
| 2026-05-06 22:45 | 42.45382 | -82.28944 | 12283 ft | 274 kts | 262° |
| 2026-05-06 22:45 | 42.45170 | -82.31499 | 11946 ft | 272 kts | 261° |
| 2026-05-06 22:45 | 42.44905 | -82.34030 | 11610 ft | 271 kts | 259° |
| 2026-05-06 22:46 | 42.44612 | -82.36541 | 11268 ft | 269 kts | 259° |
| 2026-05-06 22:46 | 42.44316 | -82.39007 | 10942 ft | 268 kts | 259° |
| 2026-05-06 22:46 | 42.44015 | -82.41493 | 10679 ft | 268 kts | 261° |
| 2026-05-06 22:46 | 42.43710 | -82.43997 | 10294 ft | 269 kts | 261° |
| 2026-05-06 22:47 | 42.43412 | -82.46464 | 10088 ft | 257 kts | 261° |
| 2026-05-06 22:47 | 42.43130 | -82.48785 | 9969 ft | 244 kts | 261° |
| 2026-05-06 22:47 | 42.42859 | -82.51019 | 9845 ft | 235 kts | 261° |
| 2026-05-06 22:47 | 42.42595 | -82.53193 | 9615 ft | 235 kts | 261° |
| 2026-05-06 22:48 | 42.42329 | -82.55384 | 9353 ft | 237 kts | 261° |
| 2026-05-06 22:48 | 42.42060 | -82.57583 | 9095 ft | 237 kts | 261° |
| 2026-05-06 22:48 | 42.41792 | -82.59781 | 8837 ft | 237 kts | 261° |
| 2026-05-06 22:48 | 42.41522 | -82.61981 | 8581 ft | 237 kts | 261° |
| 2026-05-06 22:49 | 42.41256 | -82.64153 | 8328 ft | 237 kts | 261° |
| 2026-05-06 22:49 | 42.40982 | -82.66377 | 8063 ft | 237 kts | 261° |
| 2026-05-06 22:49 | 42.40715 | -82.68548 | 7810 ft | 237 kts | 261° |
| 2026-05-06 22:49 | 42.40443 | -82.70750 | 7570 ft | 237 kts | 261° |
| 2026-05-06 22:50 | 42.40172 | -82.72949 | 7316 ft | 237 kts | 261° |
| 2026-05-06 22:50 | 42.39901 | -82.75152 | 7071 ft | 240 kts | 262° |
| 2026-05-06 22:50 | 42.39822 | -82.77469 | 6914 ft | 254 kts | 276° |
| 2026-05-06 22:50 | 42.40328 | -82.79776 | 6760 ft | 257 kts | 294° |
| 2026-05-06 22:51 | 42.41158 | -82.81924 | 6631 ft | 258 kts | 298° |
| 2026-05-06 22:51 | 42.42044 | -82.84028 | 6510 ft | 254 kts | 298° |
| 2026-05-06 22:51 | 42.42898 | -82.86047 | 6382 ft | 241 kts | 298° |
| 2026-05-06 22:51 | 42.43705 | -82.87971 | 6257 ft | 229 kts | 298° |
| 2026-05-06 22:52 | 42.44463 | -82.89788 | 6106 ft | 215 kts | 298° |
| 2026-05-06 22:52 | 42.45185 | -82.91532 | 6033 ft | 212 kts | 297° |
| 2026-05-06 22:52 | 42.45911 | -82.93290 | 5992 ft | 214 kts | 297° |
| 2026-05-06 22:52 | 42.46636 | -82.95047 | 5969 ft | 217 kts | 297° |
| 2026-05-06 22:53 | 42.47372 | -82.96834 | 5963 ft | 216 kts | 296° |
| 2026-05-06 22:53 | 42.47884 | -82.98719 | 5882 ft | 213 kts | 277° |
| 2026-05-06 22:53 | 42.47760 | -83.00691 | 5821 ft | 213 kts | 250° |
| 2026-05-06 22:53 | 42.46938 | -83.02355 | 5686 ft | 216 kts | 226° |
| 2026-05-06 22:54 | 42.45795 | -83.03686 | 5548 ft | 217 kts | 221° |
| 2026-05-06 22:54 | 42.44597 | -83.04942 | 5449 ft | 218 kts | 220° |
| 2026-05-06 22:54 | 42.43396 | -83.06196 | 5337 ft | 218 kts | 220° |
| 2026-05-06 22:54 | 42.42194 | -83.07464 | 5229 ft | 218 kts | 220° |
| 2026-05-06 22:55 | 42.41002 | -83.08732 | 5132 ft | 218 kts | 221° |
| 2026-05-06 22:55 | 42.39833 | -83.09982 | 5035 ft | 217 kts | 221° |
| 2026-05-06 22:55 | 42.38652 | -83.11247 | 4926 ft | 217 kts | 221° |
| 2026-05-06 22:55 | 42.37466 | -83.12518 | 4821 ft | 217 kts | 221° |
| 2026-05-06 22:56 | 42.36268 | -83.13751 | 4706 ft | 217 kts | 218° |
| 2026-05-06 22:56 | 42.35045 | -83.14947 | 4571 ft | 216 kts | 218° |
| 2026-05-06 22:56 | 42.33823 | -83.16136 | 4444 ft | 216 kts | 218° |
| 2026-05-06 22:56 | 42.32603 | -83.17320 | 4308 ft | 216 kts | 218° |
| 2026-05-06 22:57 | 42.31390 | -83.18497 | 4176 ft | 215 kts | 218° |
| 2026-05-06 22:57 | 42.30174 | -83.19677 | 4048 ft | 215 kts | 218° |
| 2026-05-06 22:57 | 42.28960 | -83.20854 | 3923 ft | 215 kts | 218° |
| 2026-05-06 22:57 | 42.27747 | -83.22032 | 3788 ft | 214 kts | 218° |
| 2026-05-06 22:58 | 42.26538 | -83.23204 | 3658 ft | 214 kts | 219° |
| 2026-05-06 22:58 | 42.25738 | -83.23980 | 3571 ft | 214 kts | 219° |
| 2026-05-06 22:58 | 42.24123 | -83.25546 | 3405 ft | 213 kts | 218° |
| 2026-05-06 22:58 | 42.23327 | -83.26318 | 3322 ft | 213 kts | 218° |
| 2026-05-06 22:59 | 42.21731 | -83.27863 | 3155 ft | 212 kts | 218° |
| 2026-05-06 22:59 | 42.20533 | -83.29024 | 3029 ft | 212 kts | 218° |
| 2026-05-06 22:59 | 42.19725 | -83.29805 | 3003 ft | 211 kts | 218° |
| 2026-05-06 22:59 | 42.18527 | -83.30964 | 2991 ft | 211 kts | 218° |
| 2026-05-06 23:00 | 42.17333 | -83.32118 | 2988 ft | 211 kts | 218° |
| 2026-05-06 23:00 | 42.16136 | -83.33275 | 2996 ft | 212 kts | 218° |
| 2026-05-06 23:00 | 42.14955 | -83.34415 | 2998 ft | 212 kts | 218° |
| 2026-05-06 23:00 | 42.13751 | -83.35577 | 2994 ft | 212 kts | 219° |
| 2026-05-06 23:01 | 42.12534 | -83.36698 | 3007 ft | 213 kts | 215° |
| 2026-05-06 23:01 | 42.11269 | -83.37737 | 2998 ft | 213 kts | 214° |
| 2026-05-06 23:01 | 42.09987 | -83.38738 | 2991 ft | 213 kts | 208° |
| 2026-05-06 23:01 | 42.08608 | -83.39502 | 2998 ft | 215 kts | 203° |
| 2026-05-06 23:02 | 42.07201 | -83.40187 | 2989 ft | 215 kts | 203° |
| 2026-05-06 23:02 | 42.05789 | -83.40865 | 2986 ft | 214 kts | 203° |
| 2026-05-06 23:02 | 42.04393 | -83.41529 | 2988 ft | 211 kts | 202° |
| 2026-05-06 23:02 | 42.03031 | -83.42174 | 2986 ft | 209 kts | 202° |
| 2026-05-06 23:03 | 42.01708 | -83.42794 | 3009 ft | 192 kts | 202° |
| 2026-05-06 23:03 | 42.00464 | -83.43373 | 3001 ft | 187 kts | 202° |
| 2026-05-06 23:03 | 41.99271 | -83.44062 | 2944 ft | 185 kts | 216° |
| 2026-05-06 23:03 | 41.98357 | -83.45235 | 2815 ft | 181 kts | 240° |
| 2026-05-06 23:04 | 41.98023 | -83.46823 | 2682 ft | 178 kts | 274° |
| 2026-05-06 23:04 | 41.98475 | -83.48356 | 2549 ft | 181 kts | 313° |
| 2026-05-06 23:04 | 41.99608 | -83.48966 | 2433 ft | 186 kts | 356° |
| 2026-05-06 23:04 | 42.00922 | -83.48717 | 2302 ft | 191 kts | 14° |
| 2026-05-06 23:05 | 42.02149 | -83.47987 | 2169 ft | 195 kts | 25° |
| 2026-05-06 23:05 | 42.03323 | -83.47115 | 2044 ft | 194 kts | 25° |
| 2026-05-06 23:05 | 42.04510 | -83.46238 | 1989 ft | 194 kts | 24° |
| 2026-05-06 23:05 | 42.05694 | -83.45372 | 1984 ft | 193 kts | 25° |
| 2026-05-06 23:06 | 42.06877 | -83.44510 | 1989 ft | 193 kts | 25° |
| 2026-05-06 23:06 | 42.08055 | -83.43651 | 1990 ft | 193 kts | 26° |
| 2026-05-06 23:06 | 42.09230 | -83.42788 | 2005 ft | 192 kts | 25° |
| 2026-05-06 23:06 | 42.10392 | -83.41933 | 2002 ft | 184 kts | 25° |
| 2026-05-06 23:07 | 42.11458 | -83.41144 | 1984 ft | 164 kts | 25° |
| 2026-05-06 23:07 | 42.12407 | -83.40444 | 2028 ft | 151 kts | 24° |
| 2026-05-06 23:07 | 42.13325 | -83.39771 | 2006 ft | 150 kts | 24° |
| 2026-05-06 23:07 | 42.14248 | -83.39093 | 1924 ft | 152 kts | 24° |
| 2026-05-06 23:08 | 42.15131 | -83.38441 | 1737 ft | 140 kts | 23° |
| 2026-05-06 23:08 | 42.15969 | -83.37824 | 1508 ft | 135 kts | 24° |
| 2026-05-06 23:08 | 42.16786 | -83.37222 | 1306 ft | 133 kts | 25° |
| 2026-05-06 23:08 | 42.17592 | -83.36628 | 1117 ft | 130 kts | 25° |
| 2026-05-06 23:09 | 42.18366 | -83.36051 | 1007 ft | 128 kts | 25° |
| 2026-05-06 23:09 | 42.19149 | -83.35457 | 811 ft | 129 kts | 25° |
| 2026-05-06 23:09 | 42.19934 | -83.34897 | 684 ft | 125 kts | 25° |
| 2026-05-06 23:09 | 42.20625 | -83.34409 | 651 ft | 86 kts | 28° |
| 2026-05-06 23:10 | 42.20895 | -83.34221 | 650 ft | 14 kts | 2° |
| 2026-05-06 23:10 | 42.20973 | -83.34268 | 651 ft | 10 kts | 303° |
| 2026-05-06 23:10 | 42.20981 | -83.34286 | 653 ft | 0 kts | 300° |
| 2026-05-06 23:10 | 42.20996 | -83.34323 | 652 ft | 12 kts | 299° |
| 2026-05-06 23:11 | 42.21026 | -83.34400 | 652 ft | 10 kts | 296° |
| 2026-05-06 23:11 | 42.21068 | -83.34506 | 652 ft | 14 kts | 300° |
| 2026-05-06 23:11 | 42.21124 | -83.34638 | 652 ft | 20 kts | 299° |
| 2026-05-06 23:11 | 42.21195 | -83.34817 | 648 ft | 22 kts | 298° |
| 2026-05-06 23:12 | 42.21291 | -83.34911 | 651 ft | 12 kts | 347° |
| 2026-05-06 23:12 | 42.21349 | -83.34962 | 653 ft | 14 kts | 325° |
| 2026-05-06 23:12 | 42.21451 | -83.35049 | 652 ft | 14 kts | 329° |
| 2026-05-06 23:12 | 42.21495 | -83.35127 | 652 ft | 10 kts | 243° |
| 2026-05-06 23:13 | 42.21392 | -83.35209 | 653 ft | 15 kts | 224° |
| 2026-05-06 23:13 | 42.21388 | -83.35283 | 652 ft | 6 kts | 298° |
| 2026-05-06 23:13 | 42.21404 | -83.35325 | 653 ft | 0 kts | 296° |
| 2026-05-06 23:13 | 42.21404 | -83.35326 | 653 ft | 0 kts | 296° |